Nearby METAR Reports

 

KPMP - Pompano Beach, Florida, USA
Distance from station: NNW 3mi, 5km
Updated: 01/20/2019 12:53pm
Mostly cloudy
Mostly cloudy
 Wind from W
Wind: W 26 mph , 43 km/h, Gust: 35 mph , 56 km/h
Temperature: 73°F , 23°C
Dew Point: 55°F , 13°C
Humidity: 53%
Barometer: 29.91 inHg , 1012.9 hPa
Clouds: Mostly cloudy
Visibility: 10 miles , 16 km
Cloud details: Few Clouds 3600 ft
Mostly cloudy 18000 ft
Mostly cloudy 25000 ft
2019/01/20 17:53 KPMP 201753Z 28023G30KT 10SM FEW036 BKN180 BKN250 23/13 A2991 RMK AO2 PK WND 27030/1753 SLP128 60016 T02280133 10233 20194 58004
KFXE - Ft Lauderd/Exec, Florida, USA
Distance from station: W 6mi, 9km
Updated: 01/20/2019 12:53pm
Mostly cloudy
Mostly cloudy
 Wind from W
Wind: W 23 mph , 37 km/h, Gust: 29 mph , 46 km/h
Temperature: 72°F , 22°C
Dew Point: 57°F , 14°C
Humidity: 61%
Barometer: 29.92 inHg , 1013.2 hPa
Clouds: Mostly cloudy
Visibility: 10 miles , 16 km
Cloud details: Few Clouds 2900 ft
Mostly cloudy 3800 ft
2019/01/20 17:53 KFXE 201753Z 27020G25KT 10SM FEW029 BKN038 22/14 A2992 RMK AO2 PK WND 28027/1726 SLP133 60023 T02170144 10233 20189 58002
 
KFLL - Ft Lauderd/Holly, Florida, USA
Distance from station: SSW 11mi, 17km
Updated: 01/20/2019 12:53pm
Partly cloudy
Partly cloudy
 Wind from W
Wind: W 20 mph , 31 km/h, Gust: 26 mph , 43 km/h
Temperature: 72°F , 22°C
Dew Point: 61°F , 16°C
Humidity: 69%
Barometer: 29.91 inHg , 1012.9 hPa
Clouds: Partly cloudy
Visibility: 10 miles , 16 km
Cloud details: Partly cloudy 3600 ft
2019/01/20 17:53 KFLL 201753Z AUTO 28017G23KT 10SM SCT036 22/16 A2991 RMK AO2 PK WND 28028/1737 SLP128 60023 T02220161 10233 20189 58003
KBCT - Boca Raton, Florida, USA
Distance from station: N 12mi, 19km
Updated: 01/20/2019 12:47pm
Mostly cloudy
Mostly cloudy
 Wind from WNW
Wind: WNW 18 mph , 30 km/h, Gust: 31 mph , 50 km/h
Temperature: 72°F , 22°C
Dew Point: 57°F , 14°C
Humidity: 61%
Barometer: 29.91 inHg , 1012.9 hPa
Clouds: Mostly cloudy
Visibility: 10 miles , 16 km
Cloud details: Partly cloudy 3200 ft
Mostly cloudy 3800 ft
2019/01/20 17:47 KBCT 201747Z 29016G27KT 10SM SCT032 BKN038 22/14 A2991
 
KHWO - Hollywood, Florida, USA
Distance from station: SSW 17mi, 27km
Updated: 01/20/2019 12:53pm
Mostly cloudy
Mostly cloudy
 Wind from W
Wind: W 22 mph , 35 km/h, Gust: 32 mph , 52 km/h
Temperature: 72°F , 22°C
Dew Point: 55°F , 13°C
Humidity: 57%
Barometer: 29.93 inHg , 1013.5 hPa
Clouds: Mostly cloudy
Visibility: 10 miles , 16 km
Cloud details: Mostly cloudy 3500 ft
Mostly cloudy 4600 ft
2019/01/20 17:53 KHWO 201753Z 28019G28KT 10SM BKN035 BKN046 22/13 A2993 RMK AO2 PK WND 29028/1752 SLP135 60027 T02220133 10228 20189 58005 $
KOPF - Miami/Opa Locka, Florida, USA
Distance from station: SSW 24mi, 38km
Updated: 01/20/2019 12:53pm
Few Clouds
Few Clouds
 Wind from W
Wind: W 21 mph , 33 km/h, Gust: 29 mph , 46 km/h
Temperature: 73°F , 23°C
Dew Point: 57°F , 14°C
Humidity: 57%
Barometer: 29.93 inHg , 1013.5 hPa
Clouds: Few Clouds
Visibility: 10 miles , 16 km
Cloud details: Few Clouds 4000 ft
2019/01/20 17:53 KOPF 201753Z 27018G25KT 10SM FEW040 23/14 A2993 RMK AO2 PK WND 27026/1737 SLP135 60022 T02330139 10233 20194 58004
 
KMIA - Miami, Florida, USA
Distance from station: SSW 31mi, 50km
Updated: 01/20/2019 12:53pm
Overcast
Overcast
 Wind from W
Wind: W 15 mph , 24 km/h, Gust: 22 mph , 35 km/h
Temperature: 73°F , 23°C
Dew Point: 61°F , 16°C
Humidity: 65%
Barometer: 29.93 inHg , 1013.5 hPa
Clouds: Overcast
Visibility: 10 miles , 16 km
Cloud details: Few Clouds 2500 ft
Mostly cloudy 3300 ft
Mostly cloudy 15000 ft
Overcast 25000 ft
2019/01/20 17:53 KMIA 201753Z 28013G19KT 10SM FEW025 BKN033 BKN150 OVC250 23/16 A2993 RMK AO2 SLP135 60018 T02280156 10233 20189 58004
KPBI - West Palm Beach, Florida, USA
Distance from station: N 33mi, 52km
Updated: 01/20/2019 12:53pm
Mostly cloudy
Mostly cloudy
 Wind from WNW
Wind: WNW 21 mph , 33 km/h, Gust: 26 mph , 43 km/h
Temperature: 72°F , 22°C
Dew Point: 57°F , 14°C
Humidity: 61%
Barometer: 29.91 inHg , 1012.9 hPa
Clouds: Mostly cloudy
Visibility: 10 miles , 16 km
Cloud details: Partly cloudy 3200 ft
Mostly cloudy 4400 ft
Mostly cloudy 18000 ft
2019/01/20 17:53 KPBI 201753Z 29018G23KT 10SM SCT032 BKN044 BKN180 22/14 A2991 RMK AO2 PK WND 26029/1709 SLP127 60019 T02220144 10222 20189 58003 $
 
KTMB - Miami/Tamiami, Florida, USA
Distance from station: SSW 44mi, 71km
Updated: 01/20/2019 12:53pm
Mostly cloudy
Mostly cloudy
 Wind from W
Wind: W 20 mph , 31 km/h
Temperature: 73°F , 23°C
Dew Point: 59°F , 15°C
Humidity: 61%
Barometer: 29.93 inHg , 1013.5 hPa
Clouds: Mostly cloudy
Visibility: 10 miles , 16 km
Cloud details: Mostly cloudy 4100 ft
2019/01/20 17:53 KTMB 201753Z 28017KT 10SM BKN041 23/15 A2993 RMK AO2 PK WND 29026/1733 SLP134 60116 T02330150 10233 20194 58015